Time;durP1;ratioP1;P1;durP2;ratioP2;P2;SDS_P1;SDS_P2;PMS_P1;PMS_P2;Temp;Humidity;BMP_temperature;BMP_pressure;BME280_temperature;BME280_humidity;BME280_pressure;Samples;Min_cycle;Max_cycle;Signal;HPM_P1;HPM_P2
2023/02/17 00:02:28;;;;;;;;;;;;;;;17.89;60.01;101252.22;2335207;76;51411;-74
2023/02/17 00:05:29;;;;;;;;;;;;;;;17.89;60.02;101254.89;2321018;75;51446;-75
2023/02/17 00:08:31;;;;;;;;;;;;;;;17.86;60.08;101257.91;2308623;75;50986;-75
2023/02/17 00:11:33;;;;;;;;;;;;;;;17.88;60.08;101255.04;2335390;75;50759;-73
2023/02/17 00:14:34;;;;;;;;;;;;;;;17.85;59.81;101245.50;2320912;76;51406;-74
2023/02/17 00:17:36;;;;;;;;;;;;;;;17.83;60.04;101242.17;2320727;75;51563;-74
2023/02/17 00:20:37;;;;;;;;;;;;;;;17.83;60.07;101230.13;2308660;75;50982;-74
2023/02/17 00:23:39;;;;;;;;;;;;;;;17.83;60.11;101229.62;2320730;76;49927;-73
2023/02/17 00:26:40;;;;;;;;;;;;;;;17.89;60.19;101230.80;2308302;76;50721;-74
2023/02/17 00:29:42;;;;;;;;;;;;;;;17.92;60.10;101221.59;2311291;75;50640;-73
2023/02/17 00:32:44;;;;;;;;;;;;;;;17.91;60.16;101219.43;2308449;76;52678;-73
2023/02/17 00:35:45;;;;;;;;;;;;;;;17.90;60.20;101211.55;2335497;75;51581;-74
2023/02/17 00:38:47;;;;;;;;;;;;;;;17.84;60.28;101206.36;2335311;75;51430;-74
2023/02/17 00:41:49;;;;;;;;;;;;;;;17.83;60.34;101204.19;2320826;75;51535;-75
2023/02/17 00:44:50;;;;;;;;;;;;;;;17.86;60.40;101210.22;2308635;76;51727;-74
2023/02/17 00:47:52;;;;;;;;;;;;;;;17.85;60.54;101205.34;2308724;76;52975;-74
2023/02/17 00:50:53;;;;;;;;;;;;;;;17.83;60.70;101210.05;2333838;76;51438;-73
2023/02/17 00:53:55;;;;;;;;;;;;;;;17.84;61.29;101201.00;2335063;75;51396;-72
2023/02/17 00:56:56;;;;;;;;;;;;;;;17.90;60.92;101200.84;2301595;76;51374;-73
2023/02/17 00:59:58;;;;;;;;;;;;;;;17.87;60.87;101196.66;2308352;76;50659;-73
2023/02/17 01:03:00;;;;;;;;;;;;;;;17.86;60.64;101194.98;2320804;76;50338;-73
2023/02/17 01:06:03;;;;;;;;;;;;;;;17.87;60.45;101177.91;2321050;75;50164;-73
2023/02/17 01:09:05;;;;;;;;;;;;;;;17.90;60.09;101176.23;2302495;75;49594;-73
2023/02/17 01:12:06;;;;;;;;;;;;;;;17.89;59.80;101172.41;2320646;75;50258;-73
2023/02/17 01:15:08;;;;;;;;;;;;;;;17.89;59.73;101169.22;2335461;75;50465;-73
2023/02/17 01:18:10;;;;;;;;;;;;;;;17.88;59.66;101158.19;2335327;76;50233;-73
2023/02/17 01:21:21;;;;;;;;;;;;;;;17.89;59.65;101159.85;2308759;76;51756;-73
2023/02/17 01:24:23;;;;;;;;;;;;;;;17.84;59.70;101150.97;2335154;76;50760;-73
2023/02/17 01:27:25;;;;;;;;;;;;;;;17.83;59.77;101155.17;2307964;75;52669;-73
2023/02/17 01:30:26;;;;;;;;;;;;;;;17.79;59.81;101154.65;2320976;76;51435;-73
2023/02/17 01:33:28;;;;;;;;;;;;;;;17.79;59.80;101151.11;2335238;75;52414;-73
2023/02/17 01:36:29;;;;;;;;;;;;;;;17.80;59.72;101142.95;2321058;76;51541;-73
2023/02/17 01:39:31;;;;;;;;;;;;;;;17.81;59.61;101135.75;2320464;75;50725;-72
2023/02/17 01:42:33;;;;;;;;;;;;;;;17.78;59.51;101130.70;2320637;75;50423;-72
2023/02/17 01:45:35;;;;;;;;;;;;;;;17.81;59.38;101127.72;2301215;76;51674;-72
2023/02/17 01:48:38;;;;;;;;;;;;;;;17.81;59.28;101123.70;2329918;74;51547;-73
2023/02/17 01:51:39;;;;;;;;;;;;;;;17.81;59.33;101119.19;2319641;75;51497;-73
2023/02/17 01:54:45;;;;;;;;;;;;;;;17.76;59.30;101117.48;2319471;76;51449;-72
2023/02/17 01:57:46;;;;;;;;;;;;;;;17.78;59.23;101118.66;2310862;75;50414;-73
2023/02/17 02:00:48;;;;;;;;;;;;;;;17.73;59.35;101119.16;2320995;76;50381;-72
2023/02/17 02:03:50;;;;;;;;;;;;;;;17.75;59.32;101121.17;2320754;75;50656;-73
2023/02/17 02:06:52;;;;;;;;;;;;;;;17.77;59.22;101106.27;2320614;75;50701;-73
2023/02/17 02:09:55;;;;;;;;;;;;;;;17.76;59.22;101104.09;2335269;74;52489;-73
2023/02/17 02:12:58;;;;;;;;;;;;;;;17.76;59.17;101097.91;2335128;75;51610;-73
2023/02/17 02:16:16;;;;;;;;;;;;;;;17.76;59.15;101094.73;2335596;76;50655;-73
2023/02/17 02:19:22;;;;;;;;;;;;;;;17.77;59.11;101086.19;2320811;75;51494;-73
2023/02/17 02:22:32;;;;;;;;;;;;;;;17.78;58.90;101086.55;2308553;76;51765;-73
2023/02/17 02:25:35;;;;;;;;;;;;;;;17.77;58.82;101079.50;2309610;76;50687;-72
2023/02/17 02:28:56;;;;;;;;;;;;;;;17.76;58.85;101059.93;2320453;75;50665;-73
2023/02/17 02:32:06;;;;;;;;;;;;;;;17.77;58.82;101056.75;2320892;76;51462;-72
2023/02/17 02:35:12;;;;;;;;;;;;;;;17.73;58.89;101048.73;2321004;75;51497;-73
2023/02/17 02:38:18;;;;;;;;;;;;;;;17.74;58.89;101039.69;2320881;75;50795;-73
2023/02/17 02:41:30;;;;;;;;;;;;;;;17.72;58.92;101030.48;2321254;76;50122;-72
2023/02/17 02:44:32;;;;;;;;;;;;;;;17.73;58.87;101028.16;2321218;75;50268;-73
2023/02/17 02:47:47;;;;;;;;;;;;;;;17.75;58.85;101032.84;2309398;75;51652;-73
2023/02/17 02:50:51;;;;;;;;;;;;;;;17.75;58.81;101027.97;2321388;76;51521;-73
2023/02/17 02:54:00;;;;;;;;;;;;;;;17.76;58.66;101028.33;2321149;75;50718;-72
2023/02/17 02:57:09;;;;;;;;;;;;;;;17.76;58.54;101026.98;2304791;76;51480;-73
2023/02/17 03:00:12;;;;;;;;;;;;;;;17.77;58.46;101009.91;2309025;75;52381;-73
2023/02/17 03:03:18;;;;;;;;;;;;;;;17.79;58.39;101010.58;2321208;76;50372;-73
2023/02/17 03:06:22;;;;;;;;;;;;;;;17.76;58.52;101004.23;2321309;76;50281;-73
2023/02/17 03:09:24;;;;;;;;;;;;;;;17.70;58.67;100996.86;2283136;76;51409;-73
2023/02/17 03:12:26;;;;;;;;;;;;;;;17.71;58.66;100998.55;2303770;76;51981;-73
2023/02/17 03:15:28;;;;;;;;;;;;;;;17.73;58.56;100987.18;2321575;75;50349;-72
2023/02/17 03:18:31;;;;;;;;;;;;;;;17.74;58.51;100983.48;2321523;75;50870;-73
2023/02/17 03:21:50;;;;;;;;;;;;;;;17.73;58.55;100976.47;2322097;75;50715;-72
2023/02/17 03:24:51;;;;;;;;;;;;;;;17.73;58.53;100979.16;2321772;75;51591;-73
2023/02/17 03:27:53;;;;;;;;;;;;;;;17.75;58.53;100970.42;2317303;76;52128;-73
2023/02/17 03:30:55;;;;;;;;;;;;;;;17.74;58.50;100965.58;2323798;75;51445;-72
2023/02/17 03:33:56;;;;;;;;;;;;;;;17.73;58.48;100971.12;2322096;76;49828;-73
2023/02/17 03:36:58;;;;;;;;;;;;;;;17.70;58.46;100968.76;2309476;76;50714;-73
2023/02/17 03:39:59;;;;;;;;;;;;;;;17.68;58.38;100974.81;2336151;74;50270;-73
2023/02/17 03:43:01;;;;;;;;;;;;;;;17.62;58.56;100984.32;2323389;76;50558;-73
2023/02/17 03:46:03;;;;;;;;;;;;;;;17.62;58.62;100975.81;2323992;76;50790;-73
2023/02/17 03:49:04;;;;;;;;;;;;;;;17.68;58.53;100979.66;2293952;76;51155;-73
2023/02/17 03:52:06;;;;;;;;;;;;;;;17.69;58.48;100968.44;2294036;77;50215;-70
2023/02/17 03:55:07;;;;;;;;;;;;;;;17.71;58.45;100967.27;2296012;76;50313;-72
2023/02/17 03:58:09;;;;;;;;;;;;;;;17.70;58.44;100968.76;2315703;75;50732;-72
2023/02/17 04:01:11;;;;;;;;;;;;;;;17.72;58.32;100964.08;2335836;75;51006;-73
2023/02/17 04:04:12;;;;;;;;;;;;;;;17.71;58.30;100954.39;2321288;75;50664;-74
2023/02/17 04:07:14;;;;;;;;;;;;;;;17.71;58.25;100962.42;2321315;76;50421;-73
2023/02/17 04:10:15;;;;;;;;;;;;;;;17.72;58.14;100958.22;2328908;74;50089;-73
2023/02/17 04:13:17;;;;;;;;;;;;;;;17.73;58.17;100953.73;2298373;75;52379;-73
2023/02/17 04:16:19;;;;;;;;;;;;;;;17.66;58.22;100944.19;2325105;75;51505;-72
2023/02/17 04:19:20;;;;;;;;;;;;;;;17.61;58.48;100946.54;2323467;75;50319;-73
2023/02/17 04:22:22;;;;;;;;;;;;;;;17.64;58.36;100939.00;2321174;75;50335;-73
2023/02/17 04:25:23;;;;;;;;;;;;;;;17.68;58.27;100936.00;2302629;76;51109;-73
2023/02/17 04:28:25;;;;;;;;;;;;;;;17.71;58.23;100943.69;2297290;75;50636;-73
2023/02/17 04:31:26;;;;;;;;;;;;;;;17.70;58.20;100942.00;2335968;75;51456;-73
2023/02/17 04:34:28;;;;;;;;;;;;;;;17.71;58.20;100935.66;2335438;75;50619;-72
2023/02/17 04:37:30;;;;;;;;;;;;;;;17.71;58.16;100931.14;2308904;76;51121;-73
2023/02/17 04:40:31;;;;;;;;;;;;;;;17.71;58.12;100927.12;2336078;75;50247;-72
2023/02/17 04:43:33;;;;;;;;;;;;;;;17.70;58.10;100920.11;2321504;75;50499;-73
2023/02/17 04:46:34;;;;;;;;;;;;;;;17.72;57.98;100909.22;2321743;76;51406;-72
2023/02/17 04:49:36;;;;;;;;;;;;;;;17.70;58.08;100924.60;2335952;76;51452;-71
2023/02/17 04:52:38;;;;;;;;;;;;;;;17.66;58.20;100932.66;2321573;76;51498;-72
2023/02/17 04:55:40;;;;;;;;;;;;;;;17.68;58.17;100931.98;2318884;76;51492;-71
2023/02/17 04:58:41;;;;;;;;;;;;;;;17.67;58.17;100930.30;2271258;78;51468;-73
2023/02/17 05:01:43;;;;;;;;;;;;;;;17.69;58.11;100913.58;2247975;78;52278;-70
2023/02/17 05:04:44;;;;;;;;;;;;;;;17.71;58.06;100906.22;2272968;77;51494;-73
2023/02/17 05:07:46;;;;;;;;;;;;;;;17.70;58.07;100904.53;2277533;76;51529;-70
2023/02/17 05:10:48;;;;;;;;;;;;;;;17.74;57.90;100903.20;2321841;76;50640;-71
2023/02/17 05:13:49;;;;;;;;;;;;;;;17.73;57.83;100908.23;2309165;76;51883;-71
2023/02/17 05:16:51;;;;;;;;;;;;;;;17.73;57.78;100909.56;2336463;75;52223;-71
2023/02/17 05:19:52;;;;;;;;;;;;;;;17.68;57.65;100903.89;2321539;75;51560;-72
2023/02/17 05:22:54;;;;;;;;;;;;;;;17.64;57.73;100892.67;2335538;76;50434;-71
2023/02/17 05:25:55;;;;;;;;;;;;;;;17.61;58.03;100897.86;2322551;76;49530;-72
2023/02/17 05:28:57;;;;;;;;;;;;;;;17.57;58.11;100887.19;2320584;76;50266;-72
2023/02/17 05:31:59;;;;;;;;;;;;;;;17.62;58.11;100883.50;2335623;75;50647;-72
2023/02/17 05:35:00;;;;;;;;;;;;;;;17.64;58.05;100884.65;2321454;76;51539;-74
2023/02/17 05:38:02;;;;;;;;;;;;;;;17.66;58.01;100887.99;2335704;75;52595;-74
2023/02/17 05:41:03;;;;;;;;;;;;;;;17.67;58.17;100882.96;2335768;75;51461;-74
2023/02/17 05:44:05;;;;;;;;;;;;;;;17.68;58.31;100877.13;2334789;76;51479;-73
2023/02/17 05:47:06;;;;;;;;;;;;;;;17.71;58.10;100878.13;2321397;75;51442;-74
2023/02/17 05:50:08;;;;;;;;;;;;;;;17.70;58.13;100870.60;2335603;74;52270;-74
2023/02/17 05:53:10;;;;;;;;;;;;;;;17.67;58.26;100867.41;2333864;75;51517;-75
2023/02/17 05:56:11;;;;;;;;;;;;;;;17.63;58.39;100874.97;2309660;76;51384;-74
2023/02/17 05:59:13;;;;;;;;;;;;;;;17.61;58.62;100871.11;2304170;76;51408;-74
2023/02/17 06:02:14;;;;;;;;;;;;;;;17.59;58.61;100875.78;2320967;76;50243;-74
2023/02/17 06:05:16;;;;;;;;;;;;;;;17.61;58.55;100875.13;2334548;76;51162;-74
2023/02/17 06:08:18;;;;;;;;;;;;;;;17.68;58.36;100867.77;2321534;75;50628;-74
2023/02/17 06:11:19;;;;;;;;;;;;;;;17.69;58.48;100865.41;2321453;76;50761;-74
2023/02/17 06:14:21;;;;;;;;;;;;;;;17.68;58.52;100869.10;2307732;76;51495;-74
2023/02/17 06:17:22;;;;;;;;;;;;;;;17.66;58.65;100855.05;2321347;75;50754;-74
2023/02/17 06:20:24;;;;;;;;;;;;;;;17.67;58.68;100860.73;2321503;75;51397;-74
2023/02/17 06:23:26;;;;;;;;;;;;;;;17.63;59.05;100838.33;2321242;76;50389;-74
2023/02/17 06:26:27;;;;;;;;;;;;;;;17.64;60.65;100852.53;2295323;76;53237;-74
2023/02/17 06:29:29;;;;;;;;;;;;;;;17.65;59.93;100839.51;2321051;76;51432;-74
2023/02/17 06:32:30;;;;;;;;;;;;;;;17.68;61.26;100843.17;2335633;75;50807;-74
2023/02/17 06:35:32;;;;;;;;;;;;;;;17.69;60.79;100834.13;2334416;75;53411;-74
2023/02/17 06:38:33;;;;;;;;;;;;;;;17.71;60.36;100832.63;2311423;76;50073;-74
2023/02/17 06:41:35;;;;;;;;;;;;;;;17.79;59.93;100836.61;2324676;75;51276;-74
2023/02/17 06:44:37;;;;;;;;;;;;;;;17.80;60.20;100839.16;2327307;75;51475;-74
2023/02/17 06:47:38;;;;;;;;;;;;;;;17.79;60.09;100833.92;2320892;75;50540;-73
2023/02/17 06:50:40;;;;;;;;;;;;;;;17.75;60.69;100828.58;2335728;75;51171;-73
2023/02/17 06:53:41;;;;;;;;;;;;;;;17.73;61.19;100827.44;2335277;75;50328;-73
2023/02/17 06:56:43;;;;;;;;;;;;;;;17.75;61.88;100836.61;2319421;76;50616;-74
2023/02/17 06:59:44;;;;;;;;;;;;;;;17.75;61.70;100831.25;2321057;76;51404;-74
2023/02/17 07:02:46;;;;;;;;;;;;;;;17.76;62.44;100835.11;2308727;76;52335;-75
2023/02/17 07:05:48;;;;;;;;;;;;;;;17.76;62.27;100827.59;2334633;76;51429;-74
2023/02/17 07:08:49;;;;;;;;;;;;;;;17.74;62.48;100822.40;2320763;75;51432;-75
2023/02/17 07:11:51;;;;;;;;;;;;;;;17.71;62.66;100817.91;2335487;76;50114;-75
2023/02/17 07:14:52;;;;;;;;;;;;;;;17.77;61.65;100807.33;2308746;75;51112;-75
2023/02/17 07:17:54;;;;;;;;;;;;;;;17.79;62.88;100809.84;2298054;75;50752;-75
2023/02/17 07:20:55;;;;;;;;;;;;;;;17.77;62.54;100808.66;2317887;76;51994;-75
2023/02/17 07:23:57;;;;;;;;;;;;;;;17.75;62.42;100810.70;2258187;76;50303;-75
2023/02/17 07:26:59;;;;;;;;;;;;;;;17.74;62.19;100803.66;2285328;76;52417;-74
2023/02/17 07:30:01;;;;;;;;;;;;;;;17.73;62.31;100811.88;2321155;76;50286;-73
2023/02/17 07:33:02;;;;;;;;;;;;;;;17.72;62.25;100811.53;2335191;76;49487;-74
2023/02/17 07:36:09;;;;;;;;;;;;;;;17.71;62.09;100800.52;2308888;76;50571;-74
2023/02/17 07:39:10;;;;;;;;;;;;;;;17.76;61.96;100804.84;2307092;76;52028;-74
2023/02/17 07:42:12;;;;;;;;;;;;;;;17.75;61.80;100803.16;2308675;76;51489;-75
2023/02/17 07:45:13;;;;;;;;;;;;;;;17.74;61.68;100797.48;2308871;76;51327;-74
2023/02/17 07:48:15;;;;;;;;;;;;;;;17.74;61.65;100796.14;2320983;75;50380;-75
2023/02/17 07:51:17;;;;;;;;;;;;;;;17.72;61.74;100794.14;2319563;76;49569;-74
2023/02/17 07:54:19;;;;;;;;;;;;;;;17.71;61.52;100788.47;2308686;76;51581;-75
2023/02/17 07:57:21;;;;;;;;;;;;;;;17.71;61.61;100783.95;2302111;76;51407;-75
2023/02/17 08:00:22;;;;;;;;;;;;;;;17.69;61.52;100767.73;2308884;76;50206;-75
2023/02/17 08:03:24;;;;;;;;;;;;;;;17.69;61.47;100781.94;2283191;76;52480;-74
2023/02/17 08:06:25;;;;;;;;;;;;;;;17.69;61.50;100779.27;2321051;75;49816;-75
2023/02/17 08:16:02;;;;;;;;;;;;;;;17.70;61.32;100777.42;2321379;76;22305;-75
2023/02/17 08:19:04;;;;;;;;;;;;;;;17.76;60.97;100783.43;2308799;76;51430;-75
2023/02/17 08:22:05;;;;;;;;;;;;;;;17.80;60.68;100782.95;2308757;76;51483;-75
2023/02/17 08:25:07;;;;;;;;;;;;;;;17.81;60.60;100783.77;2309864;76;50261;-75
2023/02/17 08:28:10;;;;;;;;;;;;;;;17.77;60.61;100783.23;2312091;75;51533;-75
2023/02/17 08:31:16;;;;;;;;;;;;;;;17.76;60.66;100781.58;2321320;76;50338;-75
2023/02/17 08:34:18;;;;;;;;;;;;;;;17.72;60.73;100779.42;2319104;76;50414;-75
2023/02/17 08:37:19;;;;;;;;;;;;;;;17.71;60.90;100773.24;2319095;76;50240;-75
2023/02/17 08:40:21;;;;;;;;;;;;;;;17.69;60.84;100773.91;2320947;76;51666;-75
2023/02/17 08:43:22;;;;;;;;;;;;;;;17.68;60.83;100774.10;2320705;76;51436;-75
2023/02/17 08:46:24;;;;;;;;;;;;;;;17.69;60.72;100770.41;2319053;76;51580;-75
2023/02/17 08:49:28;;;;;;;;;;;;;;;17.72;60.64;100764.70;2321106;76;50688;-74
2023/02/17 08:52:29;;;;;;;;;;;;;;;17.73;60.52;100761.03;2319120;76;22987;-74
2023/02/17 08:55:31;;;;;;;;;;;;;;;17.71;60.56;100767.06;2319692;76;50702;-74
2023/02/17 08:58:32;;;;;;;;;;;;;;;17.70;60.54;100758.69;2318918;76;51432;-74
2023/02/17 09:01:34;;;;;;;;;;;;;;;17.68;60.56;100754.03;2319130;76;51527;-75
2023/02/17 09:04:35;;;;;;;;;;;;;;;17.68;60.55;100746.84;2320829;76;51685;-74
2023/02/17 09:07:37;;;;;;;;;;;;;;;17.67;60.57;100737.63;2321066;76;51545;-74
2023/02/17 09:10:39;;;;;;;;;;;;;;;17.66;60.56;100733.30;2319302;76;50705;-74
2023/02/17 09:13:40;;;;;;;;;;;;;;;17.66;60.57;100726.61;2320767;76;50427;-74
2023/02/17 09:16:42;;;;;;;;;;;;;;;17.66;60.52;100715.91;2294656;76;51174;-75
2023/02/17 09:19:43;;;;;;;;;;;;;;;17.65;60.48;100711.06;2321006;76;50651;-74
2023/02/17 09:22:45;;;;;;;;;;;;;;;17.63;60.48;100704.54;2318897;76;51444;-75
2023/02/17 09:25:47;;;;;;;;;;;;;;;17.72;60.26;100699.14;2316488;76;51428;-75
2023/02/17 09:28:48;;;;;;;;;;;;;;;17.76;60.08;100691.92;2270695;78;51513;-74
2023/02/17 09:31:50;;;;;;;;;;;;;;;17.85;59.84;100680.68;2272529;77;51556;-75
2023/02/17 09:34:54;;;;;;;;;;;;;;;17.82;59.85;100681.05;2272492;78;51418;-75
2023/02/17 09:37:56;;;;;;;;;;;;;;;17.80;59.82;100681.23;2272561;77;50745;-75
2023/02/17 09:40:59;;;;;;;;;;;;;;;17.79;59.84;100678.69;2247291;77;51876;-75
2023/02/17 09:44:00;;;;;;;;;;;;;;;17.74;59.94;100670.36;2270456;78;50337;-74
2023/02/17 09:47:04;;;;;;;;;;;;;;;17.75;59.92;100659.97;2270654;77;50183;-74
2023/02/17 09:50:06;;;;;;;;;;;;;;;17.72;60.02;100653.64;2270934;77;51518;-75
2023/02/17 09:53:12;;;;;;;;;;;;;;;17.69;60.06;100648.65;2247303;78;51738;-74
2023/02/17 09:56:16;;;;;;;;;;;;;;;17.66;60.16;100645.00;2304092;76;50689;-75
2023/02/17 09:59:25;;;;;;;;;;;;;;;17.69;60.03;100642.79;2319180;76;51571;-75
2023/02/17 10:02:28;;;;;;;;;;;;;;;17.73;59.90;100635.26;2318943;76;52506;-75
2023/02/17 10:05:32;;;;;;;;;;;;;;;17.75;59.83;100638.56;2321119;76;51328;-74
2023/02/17 10:08:35;;;;;;;;;;;;;;;17.75;59.80;100627.86;2319197;76;50398;-74
2023/02/17 10:11:38;;;;;;;;;;;;;;;17.71;59.86;100634.09;2319081;76;50414;-74
2023/02/17 10:14:41;;;;;;;;;;;;;;;17.72;59.81;100628.22;2318941;76;50687;-75
2023/02/17 10:18:00;;;;;;;;;;;;;;;17.72;59.79;100628.22;2321099;76;52425;-74
2023/02/17 10:21:03;;;;;;;;;;;;;;;17.68;59.90;100617.56;2319118;76;50760;-74
2023/02/17 10:24:05;;;;;;;;;;;;;;;17.63;60.00;100608.21;2318831;76;50861;-75
2023/02/17 10:27:15;;;;;;;;;;;;;;;17.63;60.03;100612.73;2310412;76;50388;-74
2023/02/17 10:30:20;;;;;;;;;;;;;;;17.64;59.97;100598.34;2321014;75;50666;-75
2023/02/17 10:33:35;;;;;;;;;;;;;;;17.62;60.00;100590.50;2320780;76;50336;-75
2023/02/17 10:36:56;;;;;;;;;;;;;;;17.66;59.92;100598.17;2320954;75;50265;-74
2023/02/17 10:40:00;;;;;;;;;;;;;;;17.74;59.73;100575.36;2321102;76;51504;-74
2023/02/17 10:43:02;;;;;;;;;;;;;;;17.78;59.55;100558.77;2321340;75;22082;-75
2023/02/17 10:46:05;;;;;;;;;;;;;;;17.78;59.55;100568.65;2323937;76;52454;-74
2023/02/17 10:49:08;;;;;;;;;;;;;;;17.75;59.61;100564.97;2321435;75;50662;-75
2023/02/17 10:52:11;;;;;;;;;;;;;;;17.72;59.64;100550.62;2322844;76;50762;-74
2023/02/17 10:55:33;;;;;;;;;;;;;;;17.73;59.59;100538.92;2317144;75;51561;-75
2023/02/17 10:58:39;;;;;;;;;;;;;;;17.69;59.68;100544.29;2294786;76;51792;-75
2023/02/17 11:01:40;;;;;;;;;;;;;;;17.69;59.69;100533.59;2319710;76;50509;-74
2023/02/17 11:04:42;;;;;;;;;;;;;;;17.66;59.80;100531.28;2319416;76;51611;-74
2023/02/17 11:07:44;;;;;;;;;;;;;;;17.64;59.84;100540.81;2319603;75;51508;-75
2023/02/17 11:10:46;;;;;;;;;;;;;;;17.66;59.76;100521.40;2321122;76;51079;-75
2023/02/17 11:13:52;;;;;;;;;;;;;;;17.76;59.51;100505.92;2320966;76;50264;-75
2023/02/17 11:16:57;;;;;;;;;;;;;;;17.82;59.35;100490.50;2319645;76;51503;-75
2023/02/17 11:20:02;;;;;;;;;;;;;;;17.87;59.17;100473.90;2319536;76;22889;-75
2023/02/17 11:23:04;;;;;;;;;;;;;;;17.90;59.06;100484.23;2319661;76;23160;-75
2023/02/17 11:26:10;;;;;;;;;;;;;;;17.86;59.13;100462.88;2311472;76;50553;-75
2023/02/17 11:29:18;;;;;;;;;;;;;;;17.79;59.26;100456.08;2271380;77;51585;-75
2023/02/17 11:32:19;;;;;;;;;;;;;;;17.75;59.38;100452.58;2271324;78;50425;-75
2023/02/17 11:35:25;;;;;;;;;;;;;;;17.72;59.43;100450.27;2248195;77;51449;-75
2023/02/17 11:38:28;;;;;;;;;;;;;;;17.69;59.53;100447.96;2271711;78;51512;-74
2023/02/17 11:41:31;;;;;;;;;;;;;;;17.64;59.66;100440.47;2271447;77;50264;-75
2023/02/17 11:44:33;;;;;;;;;;;;;;;17.67;59.66;100432.08;2271590;77;50179;-74
2023/02/17 11:47:35;;;;;;;;;;;;;;;17.70;59.55;100429.54;2248062;77;50819;-75
2023/02/17 11:50:47;;;;;;;;;;;;;;;17.78;59.32;100408.08;2271465;78;51575;-74
2023/02/17 11:54:07;;;;;;;;;;;;;;;17.82;59.17;100405.37;2276060;76;51425;-74
2023/02/17 11:57:12;;;;;;;;;;;;;;;17.83;59.10;100386.98;2313349;76;50235;-74
2023/02/17 12:00:21;;;;;;;;;;;;;;;17.78;59.18;100375.45;2295008;76;52488;-74
2023/02/17 12:03:27;;;;;;;;;;;;;;;17.75;59.27;100368.28;2319324;76;50667;-78
2023/02/17 12:06:36;;;;;;;;;;;;;;;17.72;59.34;100351.25;2319375;76;51435;-74
2023/02/17 12:09:45;;;;;;;;;;;;;;;17.69;59.42;100352.45;2319527;76;51561;-74
2023/02/17 12:13:05;;;;;;;;;;;;;;;17.66;59.52;100346.14;2294871;76;52549;-74
2023/02/17 12:16:27;;;;;;;;;;;;;;;17.63;59.55;100355.37;2319507;76;51517;-74
2023/02/17 12:19:30;;;;;;;;;;;;;;;17.65;59.53;100348.51;2319505;75;50663;-73
2023/02/17 12:22:39;;;;;;;;;;;;;;;17.69;59.47;100341.75;2319321;76;50692;-74
2023/02/17 12:25:43;;;;;;;;;;;;;;;17.77;59.28;100339.49;2318229;76;51564;-74
2023/02/17 12:28:46;;;;;;;;;;;;;;;17.84;59.00;100319.04;2271535;75;51511;-74
2023/02/17 12:32:01;;;;;;;;;;;;;;;17.90;58.85;100322.30;2271409;77;50782;-74
2023/02/17 12:35:21;;;;;;;;;;;;;;;17.87;58.87;100313.83;2271463;77;52931;-74
2023/02/17 12:38:27;;;;;;;;;;;;;;;17.81;59.01;100301.51;2248392;78;50811;-74
2023/02/17 12:41:33;;;;;;;;;;;;;;;17.77;59.07;100298.02;2271518;77;51473;-74
2023/02/17 12:44:37;;;;;;;;;;;;;;;17.72;59.20;100300.41;2271316;77;51414;-74
2023/02/17 12:47:43;;;;;;;;;;;;;;;17.72;59.22;100287.04;2272036;75;51403;-74
2023/02/17 12:50:49;;;;;;;;;;;;;;;17.70;59.29;100281.03;2248589;77;51873;-74
2023/02/17 12:53:56;;;;;;;;;;;;;;;17.70;59.32;100286.38;2276782;76;51485;-74
2023/02/17 12:57:02;;;;;;;;;;;;;;;17.69;59.33;100276.71;2313643;76;51628;-73
2023/02/17 13:00:05;;;;;;;;;;;;;;;17.76;59.17;100271.77;2319577;75;50433;-74
2023/02/17 13:03:07;;;;;;;;;;;;;;;17.91;58.77;100269.62;2319361;76;50283;-74
2023/02/17 13:06:22;;;;;;;;;;;;;;;17.92;58.69;100272.61;2319468;76;50620;-74
2023/02/17 13:09:28;;;;;;;;;;;;;;;17.92;58.68;100285.47;2319558;76;50396;-74
2023/02/17 13:12:32;;;;;;;;;;;;;;;17.89;58.70;100280.50;2319411;76;50669;-74
2023/02/17 13:15:34;;;;;;;;;;;;;;;17.90;58.70;100274.63;2295343;76;51978;-74
2023/02/17 13:18:36;;;;;;;;;;;;;;;17.80;58.89;100274.44;2319454;75;51634;-74
2023/02/17 13:21:40;;;;;;;;;;;;;;;17.75;59.03;100258.56;2319375;76;50803;-74
2023/02/17 13:24:51;;;;;;;;;;;;;;;17.74;59.08;100255.58;2317708;76;50799;-74
2023/02/17 13:27:53;;;;;;;;;;;;;;;17.70;59.18;100265.84;2279718;75;51236;-74
2023/02/17 13:30:55;;;;;;;;;;;;;;;17.68;59.26;100263.02;2291769;76;50271;-74
2023/02/17 13:33:57;;;;;;;;;;;;;;;17.73;59.09;100257.43;2301738;76;51478;-74
2023/02/17 13:36:59;;;;;;;;;;;;;;;17.87;58.76;100255.77;2303534;76;50713;-74
2023/02/17 13:40:01;;;;;;;;;;;;;;;17.89;58.73;100248.89;2288722;75;51249;-75
2023/02/17 13:43:10;;;;;;;;;;;;;;;17.87;58.74;100249.07;2310525;75;51553;-74
2023/02/17 13:46:14;;;;;;;;;;;;;;;17.90;58.71;100252.70;2238711;78;51552;-74
2023/02/17 13:49:17;;;;;;;;;;;;;;;17.90;58.69;100240.66;2235263;79;51533;-75
2023/02/17 13:52:26;;;;;;;;;;;;;;;17.82;58.87;100233.57;2226066;78;52567;-75
2023/02/17 13:55:28;;;;;;;;;;;;;;;17.77;59.23;100233.79;2242095;78;50698;-75
2023/02/17 13:58:30;;;;;;;;;;;;;;;17.76;59.26;100224.11;2262117;78;50594;-75
2023/02/17 14:01:32;;;;;;;;;;;;;;;17.70;59.38;100230.20;2252495;78;50840;-74
2023/02/17 14:04:34;;;;;;;;;;;;;;;17.67;59.54;100230.58;2266433;77;51276;-74
2023/02/17 14:07:35;;;;;;;;;;;;;;;17.69;59.69;100225.88;2257011;78;50289;-75
2023/02/17 14:10:37;;;;;;;;;;;;;;;17.80;59.53;100248.16;2250531;78;50342;-73
2023/02/17 14:13:39;;;;;;;;;;;;;;;17.83;59.42;100247.29;2252146;78;49927;-73
2023/02/17 14:16:42;;;;;;;;;;;;;;;17.86;59.41;100247.42;2249117;77;52424;-74
2023/02/17 14:19:46;;;;;;;;;;;;;;;17.86;59.42;100251.95;2249932;78;51580;-74
2023/02/17 14:22:47;;;;;;;;;;;;;;;17.88;59.27;100249.41;2262401;78;51524;-76
2023/02/17 14:25:51;;;;;;;;;;;;;;;17.89;59.22;100254.25;2246060;78;50661;-76
2023/02/17 14:28:53;;;;;;;;;;;;;;;17.86;59.23;100267.50;2230945;78;22374;-76
2023/02/17 14:31:54;;;;;;;;;;;;;;;17.83;59.25;100259.84;2231072;78;50336;-75
2023/02/17 14:35:06;;;;;;;;;;;;;;;17.76;59.36;100251.70;2267347;78;50058;-75
2023/02/17 14:38:08;;;;;;;;;;;;;;;17.74;59.40;100256.40;2267241;78;51455;-76
2023/02/17 14:41:10;;;;;;;;;;;;;;;17.73;59.45;100259.28;2206698;78;51772;-75
2023/02/17 14:44:11;;;;;;;;;;;;;;;17.77;59.42;100255.20;2256882;76;50281;-75
2023/02/17 14:47:13;;;;;;;;;;;;;;;17.87;59.12;100261.11;2315746;76;50140;-76
2023/02/17 14:50:16;;;;;;;;;;;;;;;17.95;58.88;100264.19;2338028;76;50621;-76
2023/02/17 14:53:27;;;;;;;;;;;;;;;17.93;58.90;100268.41;2342098;75;52787;-76
2023/02/17 14:56:36;;;;;;;;;;;;;;;17.91;58.92;100265.09;2330005;76;51481;-76
2023/02/17 14:59:37;;;;;;;;;;;;;;;17.89;58.93;100272.47;2335759;75;51449;-76
2023/02/17 15:02:39;;;;;;;;;;;;;;;17.80;59.12;100257.52;2336032;76;51854;-75
2023/02/17 15:05:40;;;;;;;;;;;;;;;17.76;59.22;100269.61;2327765;76;51686;-76
2023/02/17 15:08:43;;;;;;;;;;;;;;;17.73;59.31;100276.67;2327812;76;50679;-77
2023/02/17 15:11:48;;;;;;;;;;;;;;;17.72;59.35;100266.97;2335832;76;50393;-76
2023/02/17 15:14:49;;;;;;;;;;;;;;;17.70;59.40;100273.01;2335876;76;50825;-76
2023/02/17 15:17:51;;;;;;;;;;;;;;;17.70;59.41;100271.67;2327755;76;52550;-76
2023/02/17 15:20:53;;;;;;;;;;;;;;;17.74;59.40;100274.30;2327889;76;51655;-77
2023/02/17 15:23:54;;;;;;;;;;;;;;;17.85;59.14;100264.48;2327342;76;51625;-76
2023/02/17 15:26:56;;;;;;;;;;;;;;;17.96;58.79;100261.34;2324184;76;51575;-77
2023/02/17 15:29:57;;;;;;;;;;;;;;;18.07;58.50;100264.03;2326332;75;51072;-76
2023/02/17 15:33:00;;;;;;;;;;;;;;;18.06;58.41;100259.70;2314683;76;51595;-77
2023/02/17 15:36:02;;;;;;;;;;;;;;;18.06;58.39;100263.72;2333743;76;50358;-76
2023/02/17 15:39:03;;;;;;;;;;;;;;;18.06;58.30;100259.19;2316691;75;51575;-76
2023/02/17 15:42:06;;;;;;;;;;;;;;;18.03;58.38;100254.22;2311368;76;49946;-77
2023/02/17 15:45:10;;;;;;;;;;;;;;;18.01;58.45;100249.55;2297888;76;51590;-77
2023/02/17 15:48:13;;;;;;;;;;;;;;;17.94;58.62;100254.00;2286502;76;51611;-76